Time;durP1;ratioP1;P1;durP2;ratioP2;P2;SDS_P1;SDS_P2;PMS_P1;PMS_P2;Temp;Humidity;BMP_temperature;BMP_pressure;BME280_temperature;BME280_humidity;BME280_pressure;Samples;Min_cycle;Max_cycle;Signal;HPM_P1;HPM_P2
2021/01/31 00:00:01;;;;;;;12.23;6.85;;;5.90;60.20;;;;;;5035799;28;20060;-74
2021/01/31 00:02:27;;;;;;;11.48;6.75;;;6.00;60.20;;;;;;5035756;28;20044;-77
2021/01/31 00:04:52;;;;;;;13.43;7.80;;;6.00;60.20;;;;;;5035696;28;20029;-77
2021/01/31 00:07:19;;;;;;;13.13;7.18;;;6.00;60.20;;;;;;5035627;28;20084;-75
2021/01/31 00:09:48;;;;;;;14.13;8.02;;;6.10;60.60;;;;;;5035713;28;20030;-77
2021/01/31 00:12:13;;;;;;;14.15;8.30;;;6.10;60.70;;;;;;5035457;28;20017;-75
2021/01/31 00:14:39;;;;;;;12.10;7.55;;;6.10;60.70;;;;;;5035548;28;20109;-74
2021/01/31 00:17:05;;;;;;;13.95;8.60;;;6.10;60.50;;;;;;5034328;28;20029;-75
2021/01/31 00:19:31;;;;;;;12.40;7.78;;;6.20;60.50;;;;;;5035481;28;20049;-75
2021/01/31 00:21:59;;;;;;;14.45;8.77;;;6.20;60.60;;;;;;5035490;28;20056;-75
2021/01/31 00:24:24;;;;;;;12.43;7.63;;;6.30;60.50;;;;;;5034005;28;20045;-74
2021/01/31 00:26:50;;;;;;;15.15;9.32;;;6.30;60.40;;;;;;5035332;28;20026;-75
2021/01/31 00:29:16;;;;;;;13.32;8.95;;;6.30;60.50;;;;;;5035251;28;20041;-74
2021/01/31 00:31:49;;;;;;;13.52;9.15;;;6.30;60.40;;;;;;5034038;28;20045;-74
2021/01/31 00:34:17;;;;;;;18.38;10.38;;;6.30;60.20;;;;;;5035323;28;20092;-75
2021/01/31 00:36:44;;;;;;;16.10;9.88;;;6.30;60.10;;;;;;5035269;28;20036;-75
2021/01/31 00:39:11;;;;;;;13.68;9.02;;;6.30;60.10;;;;;;5035093;28;20083;-75
2021/01/31 00:41:37;;;;;;;15.35;10.70;;;6.30;60.20;;;;;;5035016;28;20052;-75
2021/01/31 00:44:04;;;;;;;14.98;9.07;;;6.40;60.20;;;;;;5035082;28;20418;-75
2021/01/31 00:46:37;;;;;;;13.32;8.82;;;6.30;60.10;;;;;;5035247;28;20068;-74
2021/01/31 00:49:05;;;;;;;12.02;8.55;;;6.40;60.20;;;;;;5035158;28;20029;-75
2021/01/31 00:51:30;;;;;;;13.63;8.77;;;6.40;60.40;;;;;;5033666;28;20112;-74
2021/01/31 00:53:56;;;;;;;17.15;9.20;;;6.40;60.40;;;;;;5035130;28;20530;-75
2021/01/31 00:56:22;;;;;;;14.98;9.23;;;6.40;60.40;;;;;;5034816;28;20021;-74
2021/01/31 00:58:48;;;;;;;14.75;8.82;;;6.40;60.30;;;;;;5033460;28;20022;-74
2021/01/31 01:01:15;;;;;;;13.90;8.85;;;6.40;60.30;;;;;;5034848;28;20494;-74
2021/01/31 01:03:40;;;;;;;10.93;7.63;;;6.40;60.20;;;;;;5034585;28;20025;-75
2021/01/31 01:06:06;;;;;;;14.80;7.85;;;6.40;60.30;;;;;;5034611;28;20527;-75
2021/01/31 01:08:32;;;;;;;13.75;8.02;;;6.40;60.50;;;;;;5034550;28;20021;-75
2021/01/31 01:10:58;;;;;;;12.35;7.35;;;6.40;60.40;;;;;;5034489;28;20520;-75
2021/01/31 01:13:24;;;;;;;13.13;8.25;;;6.40;60.30;;;;;;5034477;28;20100;-74
2021/01/31 01:15:50;;;;;;;12.63;8.20;;;6.40;60.20;;;;;;5038794;28;20103;-75
2021/01/31 01:18:16;;;;;;;13.98;8.27;;;6.40;60.00;;;;;;5071081;28;20048;-77
2021/01/31 01:20:42;;;;;;;11.85;7.50;;;6.40;59.90;;;;;;5072724;28;20107;-76
2021/01/31 01:23:08;;;;;;;13.65;8.30;;;6.40;59.90;;;;;;5072705;28;20119;-74
2021/01/31 01:25:34;;;;;;;14.40;9.02;;;6.30;59.90;;;;;;5073573;28;20028;-75
2021/01/31 01:27:59;;;;;;;11.57;7.80;;;6.30;59.60;;;;;;5073908;28;20070;-75
2021/01/31 01:30:28;;;;;;;12.90;7.75;;;6.30;59.70;;;;;;5074047;28;20016;-74
2021/01/31 01:32:55;;;;;;;12.93;7.28;;;6.30;59.80;;;;;;5072695;28;20362;-74
2021/01/31 01:35:21;;;;;;;13.88;7.85;;;6.30;60.00;;;;;;5073883;28;20024;-74
2021/01/31 01:37:47;;;;;;;11.98;7.45;;;6.30;60.20;;;;;;5074196;28;20070;-75
2021/01/31 01:40:26;;;;;;;12.45;7.45;;;6.30;60.20;;;;;;5072499;28;20115;-73
2021/01/31 01:42:52;;;;;;;12.70;7.55;;;6.30;60.20;;;;;;5073843;28;20056;-73
2021/01/31 01:45:20;;;;;;;10.98;7.32;;;6.30;60.10;;;;;;5073780;28;20098;-73
2021/01/31 01:47:47;;;;;;;13.50;8.07;;;6.30;60.00;;;;;;5073650;28;20513;-74
2021/01/31 01:50:37;;;;;;;10.95;7.22;;;6.30;59.80;;;;;;5073701;28;20024;-73
2021/01/31 01:53:04;;;;;;;13.00;8.15;;;6.30;60.00;;;;;;5073418;28;20032;-74
2021/01/31 01:55:39;;;;;;;12.30;8.05;;;6.30;60.00;;;;;;5048367;28;20021;-74
2021/01/31 01:58:15;;;;;;;13.50;7.30;;;6.30;60.30;;;;;;5033732;28;20022;-74
2021/01/31 02:00:43;;;;;;;12.50;7.68;;;6.30;60.20;;;;;;5034332;28;20035;-73
2021/01/31 02:03:17;;;;;;;14.55;7.60;;;6.30;60.30;;;;;;5033528;28;20391;-73
2021/01/31 02:05:49;;;;;;;12.50;7.30;;;6.30;60.10;;;;;;5033901;28;20471;-74
2021/01/31 02:08:15;;;;;;;13.80;8.20;;;6.30;60.10;;;;;;5033748;28;20271;-72
2021/01/31 02:10:41;;;;;;;14.65;8.18;;;6.30;59.90;;;;;;5033568;28;20061;-74
2021/01/31 02:13:08;;;;;;;12.27;7.55;;;6.30;59.80;;;;;;5033992;28;20022;-74
2021/01/31 02:15:34;;;;;;;14.82;8.00;;;6.30;60.00;;;;;;5033482;28;20025;-74
2021/01/31 02:18:21;;;;;;;15.57;9.43;;;6.30;60.00;;;;;;5032202;28;20026;-74
2021/01/31 02:20:58;;;;;;;15.27;10.05;;;6.30;60.00;;;;;;5033433;28;20039;-74
2021/01/31 02:23:53;;;;;;;15.55;9.90;;;6.30;60.00;;;;;;5031932;28;20400;-73
2021/01/31 02:26:47;;;;;;;20.80;12.40;;;6.30;60.00;;;;;;5033656;28;20120;-73
2021/01/31 02:29:35;;;;;;;19.83;11.85;;;6.30;59.90;;;;;;5033640;28;20040;-73
2021/01/31 02:32:44;;;;;;;18.27;11.38;;;6.20;59.70;;;;;;5033383;28;20018;-73
2021/01/31 02:35:18;;;;;;;15.85;10.27;;;6.20;60.40;;;;;;5034021;28;20422;-72
2021/01/31 02:37:52;;;;;;;15.02;9.55;;;6.20;59.80;;;;;;5036235;28;20032;-72
2021/01/31 02:40:57;;;;;;;17.73;10.93;;;6.20;59.90;;;;;;5037357;28;20101;-72
2021/01/31 02:43:41;;;;;;;;;;;6.20;59.90;;;;;;5038078;28;20048;-72
2021/01/31 02:46:09;;;;;;;18.92;10.43;;;6.20;59.80;;;;;;5037240;28;19905;-71
2021/01/31 02:48:41;;;;;;;16.67;10.48;;;6.20;59.60;;;;;;5037144;28;20029;-72
2021/01/31 02:51:17;;;;;;;18.83;11.35;;;6.10;59.60;;;;;;5037763;28;20017;-72
2021/01/31 02:54:06;;;;;;;16.15;8.95;;;6.10;59.50;;;;;;5037234;28;20025;-71
2021/01/31 02:56:41;;;;;;;14.98;10.13;;;6.10;59.50;;;;;;5037429;28;20075;-71
2021/01/31 02:59:09;;;;;;;;;;;6.10;59.30;;;;;;5038005;28;20024;-71
2021/01/31 03:01:56;;;;;;;15.63;9.68;;;6.10;59.40;;;;;;5036898;28;19912;-71
2021/01/31 03:04:38;;;;;;;17.30;9.38;;;6.10;59.20;;;;;;5037115;28;20116;-71
2021/01/31 03:07:14;;;;;;;16.05;9.25;;;6.00;59.30;;;;;;5037214;28;20029;-71
2021/01/31 03:09:45;;;;;;;16.13;9.38;;;6.10;59.40;;;;;;5037080;28;20030;-71
2021/01/31 03:12:24;;;;;;;16.27;9.70;;;6.00;59.40;;;;;;5036837;28;20068;-70
2021/01/31 03:14:59;;;;;;;18.42;9.85;;;6.00;59.10;;;;;;5036992;28;20108;-70
2021/01/31 03:17:33;;;;;;;17.25;9.75;;;6.00;58.70;;;;;;5048314;28;20044;-70
2021/01/31 03:20:10;;;;;;;17.02;10.20;;;6.00;58.50;;;;;;5053617;28;20032;-70
2021/01/31 03:23:12;;;;;;;17.35;9.88;;;6.00;58.30;;;;;;5055689;28;20029;-70
2021/01/31 03:25:43;;;;;;;13.35;8.50;;;5.90;58.30;;;;;;5055596;28;20083;-69
2021/01/31 03:28:09;;;;;;;14.57;8.35;;;5.90;57.90;;;;;;5056813;28;20033;-72
2021/01/31 03:30:34;;;;;;;13.75;8.60;;;5.90;57.90;;;;;;5056700;28;20032;-70
2021/01/31 03:33:07;;;;;;;15.80;8.82;;;5.90;57.60;;;;;;5054987;28;20423;-70
2021/01/31 03:35:43;;;;;;;13.90;8.60;;;5.90;57.10;;;;;;5056267;28;20028;-71
2021/01/31 03:38:39;;;;;;;15.95;8.75;;;5.90;57.00;;;;;;5056422;28;20036;-70
2021/01/31 03:41:09;;;;;;;14.57;8.52;;;5.90;56.90;;;;;;5054922;28;20037;-70
2021/01/31 03:43:35;;;;;;;12.63;8.00;;;5.90;56.90;;;;;;5056749;28;20029;-70
2021/01/31 03:46:18;;;;;;;14.23;8.63;;;5.80;56.30;;;;;;5054289;28;20029;-70
2021/01/31 03:48:55;;;;;;;14.98;8.00;;;5.80;56.30;;;;;;5056020;28;20028;-70
2021/01/31 03:51:22;;;;;;;17.30;9.43;;;5.80;56.30;;;;;;5056305;28;20125;-70
2021/01/31 03:53:49;;;;;;;15.10;8.57;;;5.80;56.30;;;;;;5037095;28;20152;-70
2021/01/31 03:56:19;;;;;;;14.23;8.07;;;5.80;56.10;;;;;;5035962;28;20044;-70
2021/01/31 03:58:49;;;;;;;15.05;8.75;;;5.80;55.70;;;;;;5035914;28;20057;-70
2021/01/31 04:01:17;;;;;;;12.82;8.18;;;5.80;55.60;;;;;;5036086;28;20033;-70
2021/01/31 04:04:07;;;;;;;12.98;8.18;;;5.80;56.00;;;;;;5034504;28;20033;-70
2021/01/31 04:06:36;;;;;;;19.15;8.50;;;5.80;56.00;;;;;;5038447;28;20038;-70
2021/01/31 04:09:03;;;;;;;13.98;8.10;;;5.80;56.00;;;;;;5035914;28;20463;-70
2021/01/31 04:11:39;;;;;;;14.82;8.32;;;5.80;56.00;;;;;;5035636;28;20030;-70
2021/01/31 04:14:10;;;;;;;14.98;8.38;;;5.80;55.90;;;;;;5036077;28;20104;-70
2021/01/31 04:16:42;;;;;;;12.80;8.07;;;5.80;55.60;;;;;;5034346;28;20079;-70
2021/01/31 04:19:07;;;;;;;11.98;7.88;;;5.90;55.40;;;;;;5035843;28;20029;-70
2021/01/31 04:21:33;;;;;;;16.50;8.52;;;5.90;55.40;;;;;;5035463;28;20040;-70
2021/01/31 04:23:59;;;;;;;16.65;8.23;;;5.90;55.20;;;;;;5035275;28;20120;-70
2021/01/31 04:26:24;;;;;;;12.55;7.88;;;5.80;54.90;;;;;;5034104;28;20033;-70
2021/01/31 04:28:50;;;;;;;13.45;7.68;;;5.90;55.00;;;;;;5035209;28;20483;-70
2021/01/31 04:31:16;;;;;;;15.02;8.07;;;5.90;55.10;;;;;;5034109;28;20039;-70
2021/01/31 04:33:41;;;;;;;14.75;8.20;;;5.80;54.80;;;;;;5035172;28;20018;-70
2021/01/31 04:36:07;;;;;;;13.82;8.18;;;5.90;54.40;;;;;;5035172;28;20021;-70
2021/01/31 04:38:33;;;;;;;13.85;7.68;;;5.80;54.20;;;;;;5035218;28;20025;-70
2021/01/31 04:40:59;;;;;;;12.43;7.05;;;5.80;54.20;;;;;;5035129;28;20032;-70
2021/01/31 04:43:25;;;;;;;12.25;7.13;;;5.80;54.10;;;;;;5035365;28;20048;-70
2021/01/31 04:45:53;;;;;;;12.65;7.43;;;5.80;54.00;;;;;;5035010;28;20113;-70
2021/01/31 04:48:36;;;;;;;14.13;7.55;;;5.80;54.10;;;;;;5034863;28;20024;-70
2021/01/31 04:51:01;;;;;;;12.93;7.97;;;5.80;54.00;;;;;;5034923;28;20025;-70
2021/01/31 04:53:47;;;;;;;19.33;10.63;;;5.80;54.00;;;;;;5034890;28;20382;-70
2021/01/31 04:56:50;;;;;;;13.85;8.73;;;5.80;54.00;;;;;;5035395;28;20064;-70
2021/01/31 04:59:38;;;;;;;25.70;12.77;;;5.80;53.50;;;;;;5033858;28;20394;-70
2021/01/31 05:02:20;;;;;;;22.10;11.35;;;5.70;53.40;;;;;;5035220;28;20021;-70
2021/01/31 05:04:57;;;;;;;19.67;10.80;;;5.70;53.40;;;;;;5034806;28;20021;-70
2021/01/31 05:07:38;;;;;;;20.08;11.13;;;5.70;53.40;;;;;;5034852;28;20040;-70
2021/01/31 05:10:08;;;;;;;18.38;10.00;;;5.70;53.30;;;;;;5034911;28;20045;-70
2021/01/31 05:12:41;;;;;;;18.33;10.45;;;5.70;53.10;;;;;;5034467;28;20056;-70
2021/01/31 05:15:09;;;;;;;22.95;11.40;;;5.70;53.00;;;;;;5034756;28;20467;-70
2021/01/31 05:17:36;;;;;;;16.67;8.00;;;5.70;53.10;;;;;;5040726;28;20083;-70
2021/01/31 05:20:07;;;;;;;19.40;10.07;;;5.70;53.00;;;;;;5053286;28;20059;-70
2021/01/31 05:22:38;;;;;;;16.48;8.73;;;5.70;52.90;;;;;;5052388;28;20421;-70
2021/01/31 05:25:06;;;;;;;21.85;10.02;;;5.70;52.70;;;;;;5053816;28;20064;-70
2021/01/31 05:27:33;;;;;;;17.50;9.70;;;5.80;52.90;;;;;;5053146;28;20416;-70
2021/01/31 05:29:59;;;;;;;15.90;9.00;;;5.70;52.70;;;;;;5054135;28;20036;-70
2021/01/31 05:32:26;;;;;;;17.55;8.73;;;5.70;52.50;;;;;;5054064;28;20021;-70
2021/01/31 05:34:54;;;;;;;16.30;8.43;;;5.70;52.30;;;;;;5054272;28;20013;-70
2021/01/31 05:37:21;;;;;;;18.02;8.50;;;5.70;52.30;;;;;;5053927;28;20025;-70
2021/01/31 05:39:54;;;;;;;11.35;6.88;;;5.70;52.50;;;;;;5054200;28;20017;-70
2021/01/31 05:42:25;;;;;;;14.05;8.15;;;5.70;52.30;;;;;;5054141;28;20021;-69
2021/01/31 05:45:04;;;;;;;15.30;7.25;;;5.70;52.30;;;;;;5054132;28;20036;-70
2021/01/31 05:47:39;;;;;;;13.68;7.20;;;5.70;52.20;;;;;;5054026;28;20465;-69
2021/01/31 05:50:31;;;;;;;11.90;6.80;;;5.80;52.40;;;;;;5046525;28;20455;-70
2021/01/31 05:52:58;;;;;;;9.73;5.63;;;5.80;52.50;;;;;;5034334;28;20033;-70
2021/01/31 05:55:31;;;;;;;10.13;5.15;;;5.80;52.10;;;;;;5034010;28;20029;-70
2021/01/31 05:58:20;;;;;;;11.05;5.82;;;5.80;51.90;;;;;;5032519;28;20021;-70
2021/01/31 06:00:48;;;;;;;8.25;5.07;;;5.80;51.70;;;;;;5034022;28;20100;-70
2021/01/31 06:03:19;;;;;;;9.38;5.85;;;5.80;51.90;;;;;;5033563;28;20044;-70
2021/01/31 06:05:45;;;;;;;8.05;4.97;;;5.80;52.00;;;;;;5033628;28;20057;-70
2021/01/31 06:08:30;;;;;;;10.48;5.25;;;5.80;52.10;;;;;;5032226;28;20510;-70
2021/01/31 06:11:23;;;;;;;8.98;5.65;;;5.80;51.70;;;;;;5033324;28;20040;-70
2021/01/31 06:14:06;;;;;;;9.95;6.10;;;5.80;51.80;;;;;;5033507;28;20038;-69
2021/01/31 06:16:34;;;;;;;10.50;6.38;;;5.80;51.90;;;;;;5034084;28;20021;-70
2021/01/31 06:19:19;;;;;;;9.38;5.40;;;5.80;51.30;;;;;;5033515;28;20052;-70
2021/01/31 06:21:46;;;;;;;7.63;5.25;;;5.80;51.20;;;;;;5033744;28;20112;-70
2021/01/31 06:24:23;;;;;;;8.70;5.15;;;5.80;51.40;;;;;;5032018;28;20128;-70
2021/01/31 06:26:49;;;;;;;9.85;4.95;;;5.90;51.20;;;;;;5033320;28;20064;-70
2021/01/31 06:29:44;;;;;;;8.30;4.97;;;5.80;51.10;;;;;;5033276;28;20104;-70
2021/01/31 06:32:17;;;;;;;8.50;4.85;;;5.90;51.20;;;;;;5033538;28;20021;-70
2021/01/31 06:34:52;;;;;;;8.82;5.30;;;5.90;51.20;;;;;;5033577;28;20044;-70
2021/01/31 06:37:47;;;;;;;7.40;4.50;;;5.90;50.90;;;;;;5033811;28;20079;-70
2021/01/31 06:40:31;;;;;;;9.98;5.72;;;5.90;51.00;;;;;;5034580;28;20479;-70
2021/01/31 06:43:03;;;;;;;8.65;5.28;;;5.90;50.40;;;;;;5028176;28;20377;-70
2021/01/31 06:46:05;;;;;;;8.57;4.78;;;5.90;50.50;;;;;;5031495;28;20065;-70
2021/01/31 06:48:39;;;;;;;8.27;5.47;;;5.90;50.30;;;;;;5036609;28;20044;-70
2021/01/31 06:51:20;;;;;;;10.45;5.55;;;5.90;50.10;;;;;;5050908;28;20116;-70
2021/01/31 06:54:10;;;;;;;8.00;4.68;;;5.90;50.10;;;;;;5050929;28;20100;-70
2021/01/31 06:56:45;;;;;;;12.00;6.47;;;5.90;50.40;;;;;;5051198;28;20033;-70
2021/01/31 06:59:34;;;;;;;9.93;6.05;;;5.90;50.20;;;;;;5051474;28;20453;-69
2021/01/31 07:02:11;;;;;;;7.82;4.60;;;5.90;50.20;;;;;;5050900;28;20029;-70
2021/01/31 07:05:10;;;;;;;9.27;4.95;;;5.90;50.40;;;;;;5051120;28;20123;-70
2021/01/31 07:08:19;;;;;;;9.00;5.38;;;5.90;50.30;;;;;;5050072;28;20041;-71
2021/01/31 07:11:02;;;;;;;10.38;5.47;;;5.90;50.30;;;;;;4989685;28;20041;-70
2021/01/31 07:13:46;;;;;;;9.27;5.70;;;5.90;49.90;;;;;;5050780;28;20024;-70
2021/01/31 07:16:17;;;;;;;10.43;5.85;;;5.90;49.70;;;;;;5051818;28;20474;-70
2021/01/31 07:18:52;;;;;;;9.18;5.00;;;5.90;49.80;;;;;;5050931;28;20069;-70
2021/01/31 07:21:21;;;;;;;;;;;5.90;49.80;;;;;;5049041;28;20035;-70
2021/01/31 07:23:51;;;;;;;9.23;5.38;;;5.80;50.60;;;;;;5035321;28;19917;-70
2021/01/31 07:26:21;;;;;;;12.35;5.82;;;5.80;49.90;;;;;;5055486;28;20040;-70
2021/01/31 07:28:52;;;;;;;10.70;6.38;;;5.80;49.80;;;;;;5055985;28;20032;-70
2021/01/31 07:31:24;;;;;;;14.52;7.00;;;5.80;49.70;;;;;;5055925;28;20135;-70
2021/01/31 07:34:03;;;;;;;17.58;7.90;;;5.80;49.90;;;;;;5056450;28;20021;-70
2021/01/31 07:36:42;;;;;;;15.65;6.70;;;5.80;50.20;;;;;;5056184;28;20025;-70
2021/01/31 07:39:17;;;;;;;9.90;6.03;;;5.80;50.10;;;;;;5053484;28;20108;-70
2021/01/31 07:41:55;;;;;;;11.20;6.85;;;5.80;50.10;;;;;;5053686;28;20409;-69
2021/01/31 07:44:26;;;;;;;10.15;6.03;;;5.80;50.10;;;;;;5050403;28;20029;-70
2021/01/31 07:46:59;;;;;;;16.00;6.40;;;5.90;49.70;;;;;;5036100;28;20020;-70
2021/01/31 07:49:25;;;;;;;10.57;6.00;;;5.90;49.60;;;;;;5036630;28;20026;-70
2021/01/31 07:51:54;;;;;;;10.35;5.88;;;5.90;49.70;;;;;;5036030;28;20028;-70
2021/01/31 07:54:22;;;;;;;8.15;5.18;;;5.90;49.60;;;;;;5035911;28;20025;-69
2021/01/31 07:56:53;;;;;;;9.65;6.18;;;6.00;49.60;;;;;;5035739;28;20402;-70
2021/01/31 07:59:18;;;;;;;16.17;6.53;;;6.00;49.20;;;;;;5052913;28;20053;-70
2021/01/31 08:01:55;;;;;;;16.92;6.15;;;6.00;49.20;;;;;;5041811;28;20517;-69
2021/01/31 08:04:45;;;;;;;12.45;6.95;;;6.10;49.30;;;;;;5034537;28;20030;-70
2021/01/31 08:07:11;;;;;;;9.75;5.50;;;6.10;49.40;;;;;;5035640;28;20030;-70
2021/01/31 08:09:37;;;;;;;10.13;6.28;;;6.20;49.30;;;;;;5035479;28;20064;-69
2021/01/31 08:12:08;;;;;;;11.95;5.57;;;6.30;49.40;;;;;;5051036;28;20018;-70
2021/01/31 08:15:07;;;;;;;9.95;5.65;;;6.30;49.20;;;;;;5035646;28;20049;-70
2021/01/31 08:17:44;;;;;;;9.27;5.63;;;6.40;49.30;;;;;;5035454;28;20128;-70
2021/01/31 08:20:28;;;;;;;8.73;5.70;;;6.50;49.20;;;;;;5035712;28;20476;-70
2021/01/31 08:23:03;;;;;;;8.65;5.47;;;6.60;49.10;;;;;;5035461;28;20490;-70
2021/01/31 08:25:50;;;;;;;16.50;5.88;;;6.70;49.20;;;;;;5035402;28;20541;-70
2021/01/31 08:28:21;;;;;;;9.45;5.88;;;6.80;49.10;;;;;;5044752;28;20055;-70
2021/01/31 08:31:04;;;;;;;10.07;5.57;;;6.90;48.90;;;;;;5049993;28;20071;-70
2021/01/31 08:33:41;;;;;;;8.52;5.57;;;7.00;48.70;;;;;;5035129;28;20013;-70
2021/01/31 08:36:18;;;;;;;10.75;6.18;;;7.10;48.40;;;;;;5035192;28;20470;-70
2021/01/31 08:38:49;;;;;;;9.77;5.35;;;7.20;47.60;;;;;;5035228;28;20471;-70
2021/01/31 08:41:35;;;;;;;9.48;5.60;;;7.20;48.20;;;;;;5035669;28;20029;-70
2021/01/31 08:44:10;;;;;;;11.30;5.30;;;7.30;47.10;;;;;;5035028;28;20033;-70
2021/01/31 08:46:53;;;;;;;9.13;5.43;;;7.40;47.40;;;;;;5047918;28;20033;-70
2021/01/31 08:49:19;;;;;;;13.93;5.38;;;7.40;47.50;;;;;;5034987;28;20021;-70
2021/01/31 08:52:03;;;;;;;11.20;6.25;;;7.50;47.10;;;;;;5035196;28;20116;-70
2021/01/31 08:54:29;;;;;;;8.23;5.03;;;7.60;46.50;;;;;;5035187;28;20375;-70
2021/01/31 08:57:00;;;;;;;12.02;5.55;;;7.70;47.40;;;;;;5034072;28;20022;-70
2021/01/31 08:59:30;;;;;;;9.18;5.40;;;7.70;46.80;;;;;;5033479;28;20033;-70
2021/01/31 09:02:17;;;;;;;10.20;5.90;;;7.90;46.70;;;;;;5038395;28;20033;-70
2021/01/31 09:04:52;;;;;;;11.00;5.05;;;8.00;46.40;;;;;;5055139;28;20044;-70
2021/01/31 09:07:30;;;;;;;9.50;5.30;;;8.10;46.70;;;;;;5043602;28;20029;-71
2021/01/31 09:10:33;;;;;;;9.55;5.57;;;8.20;46.70;;;;;;5049805;28;20170;-70
2021/01/31 09:13:28;;;;;;;8.70;5.25;;;8.40;46.50;;;;;;5034546;28;20463;-71
2021/01/31 09:16:08;;;;;;;7.70;4.55;;;8.50;45.80;;;;;;5034664;28;20044;-70
2021/01/31 09:18:34;;;;;;;6.63;4.55;;;8.60;45.40;;;;;;5035696;28;20029;-71
2021/01/31 09:21:19;;;;;;;10.05;5.00;;;8.70;45.70;;;;;;5048346;28;20068;-70
2021/01/31 09:23:46;;;;;;;;;;;8.80;44.80;;;;;;5032852;28;20552;-71
2021/01/31 09:26:12;;;;;;;5.95;4.10;;;8.90;46.40;;;;;;5037296;28;19920;-70
2021/01/31 09:28:40;;;;;;;17.83;4.85;;;9.00;45.00;;;;;;5053312;28;20028;-70
2021/01/31 09:31:08;;;;;;;8.82;5.20;;;9.10;43.60;;;;;;5045805;28;20061;-71
2021/01/31 09:33:39;;;;;;;8.52;4.60;;;9.20;43.90;;;;;;5034113;28;20442;-70
2021/01/31 09:36:18;;;;;;;8.57;5.32;;;9.30;43.80;;;;;;5039149;28;20041;-70
2021/01/31 09:38:51;;;;;;;8.90;5.43;;;9.40;43.90;;;;;;5042680;28;20552;-70
2021/01/31 09:41:22;;;;;;;7.85;4.68;;;9.50;43.20;;;;;;5033913;28;20057;-71
2021/01/31 09:43:53;;;;;;;8.70;4.65;;;9.60;43.20;;;;;;5042749;28;20124;-71
2021/01/31 09:46:21;;;;;;;11.60;4.65;;;9.60;42.80;;;;;;5043632;28;20097;-70
2021/01/31 09:48:48;;;;;;;8.68;4.60;;;9.70;42.20;;;;;;5033647;28;20414;-70
2021/01/31 09:51:26;;;;;;;11.18;5.93;;;9.70;41.20;;;;;;5033725;28;20018;-70
2021/01/31 09:53:51;;;;;;;15.60;7.90;;;9.70;41.00;;;;;;5036677;28;20022;-71
2021/01/31 09:56:54;;;;;;;18.35;9.50;;;9.70;41.50;;;;;;5033485;28;20036;-71
2021/01/31 09:59:19;;;;;;;16.00;8.43;;;9.70;42.00;;;;;;5037091;28;20057;-71
2021/01/31 10:01:46;;;;;;;11.55;6.50;;;9.70;42.20;;;;;;5051093;28;20076;-70
2021/01/31 10:04:23;;;;;;;18.88;8.63;;;9.80;42.20;;;;;;5051496;28;20078;-71
2021/01/31 10:06:57;;;;;;;11.63;5.90;;;9.80;42.10;;;;;;5049600;28;20068;-70
2021/01/31 10:09:31;;;;;;;13.60;7.20;;;9.80;41.90;;;;;;5035803;28;20072;-70
2021/01/31 10:12:22;;;;;;;11.73;6.13;;;9.80;41.50;;;;;;5046694;28;20037;-71
2021/01/31 10:14:51;;;;;;;12.40;6.72;;;9.80;41.80;;;;;;5049321;28;20279;-71
2021/01/31 10:17:18;;;;;;;11.88;6.22;;;9.80;40.60;;;;;;5042131;28;20049;-71
2021/01/31 10:19:44;;;;;;;15.73;7.25;;;9.80;41.10;;;;;;5031609;28;20077;-71
2021/01/31 10:22:30;;;;;;;11.45;6.50;;;9.80;40.70;;;;;;5031376;28;20523;-70
2021/01/31 10:24:56;;;;;;;11.30;4.97;;;9.80;41.10;;;;;;5041510;28;20067;-70
2021/01/31 10:27:33;;;;;;;10.32;5.90;;;9.80;41.10;;;;;;5029937;28;20041;-70
2021/01/31 10:30:23;;;;;;;12.30;6.22;;;9.80;40.40;;;;;;5036766;28;20021;-71
2021/01/31 10:32:49;;;;;;;12.43;5.82;;;9.80;40.90;;;;;;5020837;28;20049;-71
2021/01/31 10:35:30;;;;;;;13.63;6.07;;;9.80;41.40;;;;;;5032380;28;20057;-70
2021/01/31 10:37:57;;;;;;;11.85;5.20;;;9.80;40.80;;;;;;5033053;28;20036;-71
2021/01/31 10:40:23;;;;;;;11.90;5.88;;;9.90;40.90;;;;;;5051848;28;20033;-71
2021/01/31 10:42:49;;;;;;;11.00;5.93;;;9.90;40.60;;;;;;5052046;28;20115;-71
2021/01/31 10:45:22;;;;;;;13.07;7.05;;;9.90;40.80;;;;;;5038575;28;20111;-70
2021/01/31 10:47:49;;;;;;;14.65;7.60;;;9.90;40.90;;;;;;5049007;28;20029;-71
2021/01/31 10:50:19;;;;;;;27.90;10.52;;;10.00;41.30;;;;;;5044999;28;20025;-71
2021/01/31 10:52:47;;;;;;;21.88;10.48;;;10.10;41.60;;;;;;5033372;28;20458;-71
2021/01/31 10:55:13;;;;;;;20.13;10.52;;;10.10;41.00;;;;;;5033116;28;20028;-71
2021/01/31 10:57:39;;;;;;;22.13;10.70;;;10.20;41.00;;;;;;5036203;28;20025;-71
2021/01/31 11:00:07;;;;;;;18.58;10.80;;;10.20;40.80;;;;;;5037004;28;20039;-71
2021/01/31 11:02:34;;;;;;;33.83;16.67;;;10.20;41.00;;;;;;5052258;28;20421;-70
2021/01/31 11:04:59;;;;;;;18.38;9.85;;;10.30;40.50;;;;;;5037134;28;20029;-71
2021/01/31 11:07:25;;;;;;;16.48;8.77;;;10.30;40.60;;;;;;5036806;28;20039;-71
2021/01/31 11:09:51;;;;;;;17.83;7.50;;;10.40;40.60;;;;;;5037008;28;20063;-71
2021/01/31 11:12:17;;;;;;;20.27;11.18;;;10.30;40.90;;;;;;5036719;28;20025;-71
2021/01/31 11:14:42;;;;;;;25.67;10.70;;;10.40;40.90;;;;;;5036698;28;20026;-71
2021/01/31 11:17:08;;;;;;;24.75;10.77;;;10.40;40.60;;;;;;5035407;28;20022;-71
2021/01/31 11:19:34;;;;;;;15.38;8.55;;;10.40;40.20;;;;;;5038074;28;20036;-71
2021/01/31 11:22:00;;;;;;;21.45;10.43;;;10.40;40.90;;;;;;5054913;28;20442;-71
2021/01/31 11:24:26;;;;;;;20.08;11.10;;;10.40;41.10;;;;;;5053274;28;20136;-70
2021/01/31 11:26:51;;;;;;;15.52;8.88;;;10.40;41.10;;;;;;5055762;28;20033;-71
2021/01/31 11:29:17;;;;;;;11.55;7.43;;;10.50;41.20;;;;;;5055544;28;20033;-71
2021/01/31 11:31:43;;;;;;;14.40;8.18;;;10.50;41.10;;;;;;5055068;28;20405;-71
2021/01/31 11:34:09;;;;;;;16.08;7.90;;;10.50;41.10;;;;;;5054905;28;20025;-72
2021/01/31 11:36:34;;;;;;;16.98;7.82;;;10.50;41.40;;;;;;5054988;28;20382;-71
2021/01/31 11:39:07;;;;;;;14.52;7.43;;;10.60;41.00;;;;;;5056619;28;20033;-71
2021/01/31 11:41:35;;;;;;;19.45;7.43;;;10.60;41.10;;;;;;5054856;28;20021;-71
2021/01/31 11:44:01;;;;;;;10.52;6.63;;;10.60;40.80;;;;;;5056046;28;20028;-71
2021/01/31 11:46:27;;;;;;;13.40;7.60;;;10.60;40.60;;;;;;5056281;28;20021;-71
2021/01/31 11:48:53;;;;;;;12.15;7.32;;;10.50;40.30;;;;;;5055863;28;20029;-71
2021/01/31 11:51:19;;;;;;;13.77;7.72;;;10.40;40.30;;;;;;5055926;28;20032;-71
2021/01/31 11:53:44;;;;;;;12.88;6.85;;;10.40;40.40;;;;;;5054577;28;20033;-71
2021/01/31 11:56:11;;;;;;;12.85;7.32;;;10.30;40.00;;;;;;5056390;28;20029;-71
2021/01/31 11:58:36;;;;;;;10.32;6.60;;;10.10;40.20;;;;;;5055826;28;20566;-71
2021/01/31 12:01:02;;;;;;;14.32;7.28;;;10.10;40.40;;;;;;5056050;28;20061;-71
2021/01/31 12:03:28;;;;;;;23.45;6.60;;;10.00;40.30;;;;;;5055717;28;20024;-71
2021/01/31 12:05:54;;;;;;;13.02;6.68;;;9.90;40.70;;;;;;5055632;28;20449;-71
2021/01/31 12:08:20;;;;;;;10.90;6.30;;;9.90;40.70;;;;;;5055176;28;20025;-71
2021/01/31 12:10:46;;;;;;;9.35;6.55;;;9.80;40.80;;;;;;5054339;28;20025;-71
2021/01/31 12:13:11;;;;;;;16.27;7.10;;;9.80;41.00;;;;;;5054303;28;20409;-71
2021/01/31 12:15:39;;;;;;;16.52;6.82;;;9.70;41.00;;;;;;5055494;28;20437;-71
2021/01/31 12:18:05;;;;;;;27.27;11.52;;;9.60;41.30;;;;;;5055531;28;20096;-71
2021/01/31 12:20:31;;;;;;;21.63;9.60;;;9.70;41.80;;;;;;5055728;28;20408;-71
2021/01/31 12:22:57;;;;;;;15.32;8.68;;;9.70;41.80;;;;;;5055211;28;20032;-71
2021/01/31 12:25:23;;;;;;;17.80;10.30;;;9.70;42.00;;;;;;5055280;28;20032;-70
2021/01/31 12:27:50;;;;;;;22.73;10.63;;;9.70;42.00;;;;;;5053979;28;20432;-71
2021/01/31 12:30:23;;;;;;;25.40;14.25;;;9.70;42.20;;;;;;5055268;28;20063;-72
2021/01/31 12:32:49;;;;;;;21.10;10.20;;;9.70;41.20;;;;;;5055130;28;20047;-71
2021/01/31 12:35:16;;;;;;;17.27;10.35;;;9.80;41.60;;;;;;5053743;28;20029;-71
2021/01/31 12:37:42;;;;;;;26.35;11.70;;;9.70;41.60;;;;;;5055005;28;20021;-71
2021/01/31 12:40:09;;;;;;;21.10;10.43;;;9.80;41.80;;;;;;5054845;28;20382;-71
2021/01/31 12:42:35;;;;;;;21.83;11.00;;;9.70;41.90;;;;;;5054973;28;20017;-71
2021/01/31 12:45:00;;;;;;;17.10;10.57;;;9.70;41.60;;;;;;5055255;28;20021;-71
2021/01/31 12:47:26;;;;;;;15.93;9.23;;;9.70;41.50;;;;;;5054947;28;20075;-71
2021/01/31 12:49:52;;;;;;;14.68;8.52;;;9.70;41.70;;;;;;5054775;28;20025;-71
2021/01/31 12:52:18;;;;;;;20.48;12.70;;;9.60;41.70;;;;;;5055342;28;20021;-71
2021/01/31 12:54:43;;;;;;;23.95;12.95;;;9.60;41.70;;;;;;5053574;28;20059;-71
2021/01/31 12:57:09;;;;;;;24.17;13.90;;;9.60;41.60;;;;;;5054899;28;20029;-71
2021/01/31 12:59:35;;;;;;;19.27;10.68;;;9.60;41.50;;;;;;5054715;28;20519;-71
2021/01/31 13:02:01;;;;;;;19.38;10.30;;;9.60;41.90;;;;;;5053403;28;20035;-73
2021/01/31 13:04:26;;;;;;;23.98;10.60;;;9.50;41.80;;;;;;5054495;28;20513;-71
2021/01/31 13:06:52;;;;;;;14.07;7.47;;;9.50;41.90;;;;;;5054581;28;20033;-70
2021/01/31 13:09:18;;;;;;;19.50;9.65;;;9.50;42.00;;;;;;5054605;28;20078;-71
2021/01/31 13:11:43;;;;;;;20.08;11.32;;;9.40;42.00;;;;;;5054431;28;20115;-71
2021/01/31 13:14:09;;;;;;;17.55;10.82;;;9.40;42.20;;;;;;5054613;28;20047;-71